Akron, Alabama
Current Conditions -  °F | °C
As of 12:53 AM on Saturday 01 Nov 2014 (Local Time) from KTCL Reporting Station
Clear Clear  
Wind Chill: 34°   Ceiling: Unl
Heat Index: 40°   Visibility: 10mi
Dew Point: 27°   Wind: 8mph
Humidity: 60%   Direction: 300°WNW
Pressure: 30.22"   Gusts: NA
Location:  32.88°N, 87.74°W
Report Text: KTCL 010553Z AUTO 30007KT 10SM CLR 04/M03 A3022 RMK AO2 SLP232 T00441028 10128 20044 402110044 50006
Loading
Personal Weather Stations






























Interactive Weather Map
Tropical Storm Tracking
New forecast layout! Learn more

10-Day Weather Forecast

Advertisements
Track Severe Weather on mobile